sensor_id;sensor_type;location;lat;lon;timestamp;pressure;altitude;pressure_sealevel;temperature;humidity
49473;BME280;67434;50.956;6.918;2023-02-07T00:02:14;103473.88;;;-0.22;82.94
49473;BME280;67434;50.956;6.918;2023-02-07T00:04:59;103470.25;;;-0.21;82.60
49473;BME280;67434;50.956;6.918;2023-02-07T00:07:45;103470.84;;;-0.17;82.82
49473;BME280;67434;50.956;6.918;2023-02-07T00:10:31;103486.06;;;-0.30;83.09
49473;BME280;67434;50.956;6.918;2023-02-07T00:13:17;103482.88;;;-0.47;83.80
49473;BME280;67434;50.956;6.918;2023-02-07T00:16:03;103475.66;;;-0.34;83.38
49473;BME280;67434;50.956;6.918;2023-02-07T00:18:49;103471.53;;;-0.38;83.28
49473;BME280;67434;50.956;6.918;2023-02-07T00:21:36;103471.41;;;-0.47;83.25
49473;BME280;67434;50.956;6.918;2023-02-07T00:24:22;103475.97;;;-0.60;83.51
49473;BME280;67434;50.956;6.918;2023-02-07T00:27:08;103475.09;;;-0.61;83.77
49473;BME280;67434;50.956;6.918;2023-02-07T00:29:53;103470.41;;;-0.57;83.06
49473;BME280;67434;50.956;6.918;2023-02-07T00:32:39;103471.97;;;-0.66;82.68
49473;BME280;67434;50.956;6.918;2023-02-07T00:35:24;103464.25;;;-0.58;81.95
49473;BME280;67434;50.956;6.918;2023-02-07T00:38:10;103454.22;;;-0.54;82.12
49473;BME280;67434;50.956;6.918;2023-02-07T00:40:56;103468.00;;;-0.60;81.66
49473;BME280;67434;50.956;6.918;2023-02-07T00:43:42;103466.41;;;-0.63;82.01
49473;BME280;67434;50.956;6.918;2023-02-07T00:46:31;103459.41;;;-0.64;82.35
49473;BME280;67434;50.956;6.918;2023-02-07T00:49:17;103458.69;;;-0.66;81.68
49473;BME280;67434;50.956;6.918;2023-02-07T00:52:03;103473.53;;;-0.64;81.60
49473;BME280;67434;50.956;6.918;2023-02-07T00:54:49;103469.19;;;-0.65;81.63
49473;BME280;67434;50.956;6.918;2023-02-07T00:57:34;103467.25;;;-0.63;81.33
49473;BME280;67434;50.956;6.918;2023-02-07T01:00:21;103471.22;;;-0.68;81.61
49473;BME280;67434;50.956;6.918;2023-02-07T01:03:07;103473.28;;;-0.72;81.35
49473;BME280;67434;50.956;6.918;2023-02-07T01:05:52;103476.13;;;-0.75;81.50
49473;BME280;67434;50.956;6.918;2023-02-07T01:08:38;103463.94;;;-0.77;81.90
49473;BME280;67434;50.956;6.918;2023-02-07T01:11:24;103456.69;;;-0.75;81.86
49473;BME280;67434;50.956;6.918;2023-02-07T01:14:10;103449.44;;;-0.84;82.11
49473;BME280;67434;50.956;6.918;2023-02-07T01:16:56;103453.41;;;-0.90;82.19
49473;BME280;67434;50.956;6.918;2023-02-07T01:19:41;103461.47;;;-0.91;82.05
49473;BME280;67434;50.956;6.918;2023-02-07T01:22:27;103452.66;;;-0.92;82.40
49473;BME280;67434;50.956;6.918;2023-02-07T01:25:13;103472.22;;;-0.93;82.62
49473;BME280;67434;50.956;6.918;2023-02-07T01:27:58;103474.88;;;-0.93;82.30
49473;BME280;67434;50.956;6.918;2023-02-07T01:30:44;103472.16;;;-1.04;82.48
49473;BME280;67434;50.956;6.918;2023-02-07T01:33:29;103468.66;;;-1.05;82.87
49473;BME280;67434;50.956;6.918;2023-02-07T01:36:15;103470.28;;;-1.15;83.50
49473;BME280;67434;50.956;6.918;2023-02-07T01:39:01;103465.81;;;-1.14;83.27
49473;BME280;67434;50.956;6.918;2023-02-07T01:41:48;103450.75;;;-1.14;82.99
49473;BME280;67434;50.956;6.918;2023-02-07T01:47:21;103442.84;;;-1.27;83.24
49473;BME280;67434;50.956;6.918;2023-02-07T01:50:08;103451.50;;;-1.36;83.98
49473;BME280;67434;50.956;6.918;2023-02-07T01:52:54;103445.22;;;-1.35;83.75
49473;BME280;67434;50.956;6.918;2023-02-07T01:55:42;103448.84;;;-1.36;83.82
49473;BME280;67434;50.956;6.918;2023-02-07T01:58:30;103451.84;;;-1.40;84.34
49473;BME280;67434;50.956;6.918;2023-02-07T02:01:21;103441.09;;;-1.39;84.12
49473;BME280;67434;50.956;6.918;2023-02-07T02:04:07;103451.44;;;-1.47;84.61
49473;BME280;67434;50.956;6.918;2023-02-07T02:06:53;103451.22;;;-1.44;84.39
49473;BME280;67434;50.956;6.918;2023-02-07T02:09:39;103448.34;;;-1.53;85.18
49473;BME280;67434;50.956;6.918;2023-02-07T02:15:34;103446.25;;;-1.61;85.20
49473;BME280;67434;50.956;6.918;2023-02-07T02:33:40;103447.28;;;-1.51;85.16
49473;BME280;67434;50.956;6.918;2023-02-07T02:44:55;103443.03;;;-1.77;85.64
49473;BME280;67434;50.956;6.918;2023-02-07T02:47:44;103448.84;;;-1.72;85.54
49473;BME280;67434;50.956;6.918;2023-02-07T02:50:33;103450.09;;;-1.65;85.05
49473;BME280;67434;50.956;6.918;2023-02-07T02:53:19;103450.97;;;-1.77;85.25
49473;BME280;67434;50.956;6.918;2023-02-07T02:59:09;103451.19;;;-1.80;85.86
49473;BME280;67434;50.956;6.918;2023-02-07T03:08:27;103463.53;;;-1.55;84.63
49473;BME280;67434;50.956;6.918;2023-02-07T03:11:18;103455.41;;;-1.65;84.55
49473;BME280;67434;50.956;6.918;2023-02-07T03:17:05;103440.59;;;-1.80;85.18
49473;BME280;67434;50.956;6.918;2023-02-07T03:23:05;103434.66;;;-1.97;86.36
49473;BME280;67434;50.956;6.918;2023-02-07T03:25:54;103431.25;;;-1.86;85.72
49473;BME280;67434;50.956;6.918;2023-02-07T03:28:42;103420.25;;;-1.93;85.23
49473;BME280;67434;50.956;6.918;2023-02-07T03:31:31;103425.16;;;-2.12;86.59
49473;BME280;67434;50.956;6.918;2023-02-07T03:34:24;103411.72;;;-2.22;87.13
49473;BME280;67434;50.956;6.918;2023-02-07T03:37:39;103416.91;;;-2.20;87.14
49473;BME280;67434;50.956;6.918;2023-02-07T03:40:28;103415.09;;;-2.32;87.40
49473;BME280;67434;50.956;6.918;2023-02-07T03:43:17;103410.09;;;-2.24;87.38
49473;BME280;67434;50.956;6.918;2023-02-07T03:46:07;103400.78;;;-2.17;86.80
49473;BME280;67434;50.956;6.918;2023-02-07T03:48:53;103406.72;;;-2.13;86.81
49473;BME280;67434;50.956;6.918;2023-02-07T03:51:40;103411.50;;;-2.18;86.57
49473;BME280;67434;50.956;6.918;2023-02-07T03:54:25;103411.63;;;-2.20;86.37
49473;BME280;67434;50.956;6.918;2023-02-07T03:57:11;103414.03;;;-2.17;86.06
49473;BME280;67434;50.956;6.918;2023-02-07T03:59:57;103420.91;;;-2.02;86.02
49473;BME280;67434;50.956;6.918;2023-02-07T04:02:43;103421.31;;;-1.95;85.48
49473;BME280;67434;50.956;6.918;2023-02-07T04:05:28;103420.56;;;-1.97;85.24
49473;BME280;67434;50.956;6.918;2023-02-07T04:08:14;103418.03;;;-1.99;85.21
49473;BME280;67434;50.956;6.918;2023-02-07T04:11:12;103419.44;;;-2.06;85.16
49473;BME280;67434;50.956;6.918;2023-02-07T04:13:58;103427.91;;;-2.01;85.43
49473;BME280;67434;50.956;6.918;2023-02-07T04:16:43;103426.19;;;-2.02;85.22
49473;BME280;67434;50.956;6.918;2023-02-07T04:19:29;103421.94;;;-1.92;85.35
49473;BME280;67434;50.956;6.918;2023-02-07T04:22:14;103418.88;;;-1.85;84.82
49473;BME280;67434;50.956;6.918;2023-02-07T04:25:00;103413.75;;;-1.89;85.21
49473;BME280;67434;50.956;6.918;2023-02-07T04:27:45;103413.13;;;-1.92;85.51
49473;BME280;67434;50.956;6.918;2023-02-07T04:30:32;103420.47;;;-1.83;84.92
49473;BME280;67434;50.956;6.918;2023-02-07T04:33:18;103422.25;;;-1.96;85.27
49473;BME280;67434;50.956;6.918;2023-02-07T04:36:05;103419.19;;;-1.90;85.50
49473;BME280;67434;50.956;6.918;2023-02-07T04:38:51;103423.22;;;-1.84;84.98
49473;BME280;67434;50.956;6.918;2023-02-07T04:41:37;103427.13;;;-1.77;84.39
49473;BME280;67434;50.956;6.918;2023-02-07T04:44:22;103414.09;;;-1.80;83.85
49473;BME280;67434;50.956;6.918;2023-02-07T04:47:08;103420.91;;;-2.02;85.04
49473;BME280;67434;50.956;6.918;2023-02-07T04:49:54;103416.03;;;-2.08;84.74
49473;BME280;67434;50.956;6.918;2023-02-07T04:52:39;103424.94;;;-2.09;84.53
49473;BME280;67434;50.956;6.918;2023-02-07T04:55:25;103419.97;;;-2.13;85.24
49473;BME280;67434;50.956;6.918;2023-02-07T04:58:11;103409.25;;;-2.25;85.24
49473;BME280;67434;50.956;6.918;2023-02-07T05:00:57;103408.84;;;-2.18;85.89
49473;BME280;67434;50.956;6.918;2023-02-07T05:03:42;103418.91;;;-2.24;85.31
49473;BME280;67434;50.956;6.918;2023-02-07T05:06:28;103411.72;;;-2.22;85.08
49473;BME280;67434;50.956;6.918;2023-02-07T05:09:13;103406.50;;;-2.23;84.58
49473;BME280;67434;50.956;6.918;2023-02-07T05:11:59;103406.94;;;-2.16;84.19
49473;BME280;67434;50.956;6.918;2023-02-07T05:14:45;103410.84;;;-2.09;83.65
49473;BME280;67434;50.956;6.918;2023-02-07T05:17:30;103407.69;;;-2.14;83.67
49473;BME280;67434;50.956;6.918;2023-02-07T05:20:19;103409.78;;;-2.07;83.27
49473;BME280;67434;50.956;6.918;2023-02-07T05:23:04;103410.97;;;-2.11;83.17
49473;BME280;67434;50.956;6.918;2023-02-07T05:25:50;103415.53;;;-2.13;83.16
49473;BME280;67434;50.956;6.918;2023-02-07T05:28:35;103412.00;;;-2.26;83.76
49473;BME280;67434;50.956;6.918;2023-02-07T05:31:21;103412.66;;;-2.35;84.50
49473;BME280;67434;50.956;6.918;2023-02-07T05:34:27;103410.84;;;-2.35;84.95
49473;BME280;67434;50.956;6.918;2023-02-07T05:37:12;103411.59;;;-2.33;84.95
49473;BME280;67434;50.956;6.918;2023-02-07T05:40:00;103411.16;;;-2.27;84.67
49473;BME280;67434;50.956;6.918;2023-02-07T05:42:46;103408.22;;;-2.22;84.48
49473;BME280;67434;50.956;6.918;2023-02-07T05:45:32;103410.66;;;-2.19;83.64
49473;BME280;67434;50.956;6.918;2023-02-07T05:48:18;103425.59;;;-2.31;85.07
49473;BME280;67434;50.956;6.918;2023-02-07T05:51:03;103416.91;;;-2.33;84.91
49473;BME280;67434;50.956;6.918;2023-02-07T05:53:49;103413.41;;;-2.21;84.07
49473;BME280;67434;50.956;6.918;2023-02-07T05:56:34;103426.94;;;-2.25;84.43
49473;BME280;67434;50.956;6.918;2023-02-07T05:59:20;103428.13;;;-2.29;84.51
49473;BME280;67434;50.956;6.918;2023-02-07T06:02:05;103430.88;;;-2.31;84.14
49473;BME280;67434;50.956;6.918;2023-02-07T06:04:51;103429.59;;;-2.25;84.33
49473;BME280;67434;50.956;6.918;2023-02-07T06:07:37;103441.81;;;-2.23;83.91
49473;BME280;67434;50.956;6.918;2023-02-07T06:10:22;103450.41;;;-2.19;83.07
49473;BME280;67434;50.956;6.918;2023-02-07T06:13:08;103447.97;;;-2.22;82.79
49473;BME280;67434;50.956;6.918;2023-02-07T06:15:54;103448.03;;;-2.24;82.66
49473;BME280;67434;50.956;6.918;2023-02-07T06:18:39;103449.34;;;-2.16;83.00
49473;BME280;67434;50.956;6.918;2023-02-07T06:21:25;103443.19;;;-2.30;83.43
49473;BME280;67434;50.956;6.918;2023-02-07T06:24:10;103448.78;;;-2.34;83.76
49473;BME280;67434;50.956;6.918;2023-02-07T06:26:56;103449.75;;;-2.35;84.20
49473;BME280;67434;50.956;6.918;2023-02-07T06:29:42;103452.28;;;-2.34;83.74
49473;BME280;67434;50.956;6.918;2023-02-07T06:32:28;103440.84;;;-2.34;83.95
49473;BME280;67434;50.956;6.918;2023-02-07T06:35:13;103442.44;;;-2.32;83.78
49473;BME280;67434;50.956;6.918;2023-02-07T06:38:02;103453.66;;;-2.28;83.76
49473;BME280;67434;50.956;6.918;2023-02-07T06:40:48;103456.63;;;-2.33;83.74
49473;BME280;67434;50.956;6.918;2023-02-07T06:43:33;103458.22;;;-2.30;83.08
49473;BME280;67434;50.956;6.918;2023-02-07T06:46:19;103464.50;;;-2.18;82.52
49473;BME280;67434;50.956;6.918;2023-02-07T06:49:05;103453.91;;;-2.18;82.48
49473;BME280;67434;50.956;6.918;2023-02-07T06:51:50;103455.47;;;-2.16;82.32
49473;BME280;67434;50.956;6.918;2023-02-07T06:54:36;103459.19;;;-2.06;83.12
49473;BME280;67434;50.956;6.918;2023-02-07T06:57:22;103461.31;;;-2.11;82.13
49473;BME280;67434;50.956;6.918;2023-02-07T07:00:07;103463.75;;;-2.08;82.50
49473;BME280;67434;50.956;6.918;2023-02-07T07:02:53;103467.97;;;-1.93;81.76
49473;BME280;67434;50.956;6.918;2023-02-07T07:05:19;103470.72;;;-1.81;81.24
49473;BME280;67434;50.956;6.918;2023-02-07T07:07:44;103463.84;;;-1.84;81.21
49473;BME280;67434;50.956;6.918;2023-02-07T07:10:10;103471.91;;;-1.85;81.58
49473;BME280;67434;50.956;6.918;2023-02-07T07:12:36;103463.50;;;-1.79;80.67
49473;BME280;67434;50.956;6.918;2023-02-07T07:15:02;103477.72;;;-1.80;80.95
49473;BME280;67434;50.956;6.918;2023-02-07T07:17:31;103470.72;;;-1.81;80.55
49473;BME280;67434;50.956;6.918;2023-02-07T07:19:56;103477.94;;;-1.83;80.32
49473;BME280;67434;50.956;6.918;2023-02-07T07:22:22;103484.50;;;-1.76;80.21
49473;BME280;67434;50.956;6.918;2023-02-07T07:24:49;103495.72;;;-1.73;80.59
49473;BME280;67434;50.956;6.918;2023-02-07T07:27:15;103496.13;;;-1.66;79.54
49473;BME280;67434;50.956;6.918;2023-02-07T07:29:40;103501.00;;;-1.60;79.43
49473;BME280;67434;50.956;6.918;2023-02-07T07:32:05;103504.59;;;-1.48;79.38
49473;BME280;67434;50.956;6.918;2023-02-07T07:34:31;103506.31;;;-1.47;79.32
49473;BME280;67434;50.956;6.918;2023-02-07T07:36:57;103515.84;;;-1.45;79.33
49473;BME280;67434;50.956;6.918;2023-02-07T07:39:26;103505.44;;;-1.48;79.19
49473;BME280;67434;50.956;6.918;2023-02-07T07:41:51;103510.53;;;-1.45;79.46
49473;BME280;67434;50.956;6.918;2023-02-07T07:44:16;103498.41;;;-1.36;79.12
49473;BME280;67434;50.956;6.918;2023-02-07T07:46:43;103497.09;;;-1.31;78.80
49473;BME280;67434;50.956;6.918;2023-02-07T07:49:08;103513.78;;;-1.29;78.58
49473;BME280;67434;50.956;6.918;2023-02-07T07:51:34;103515.13;;;-1.23;77.95
49473;BME280;67434;50.956;6.918;2023-02-07T07:54:00;103518.50;;;-1.21;78.39
49473;BME280;67434;50.956;6.918;2023-02-07T07:56:25;103522.63;;;-1.17;78.29
49473;BME280;67434;50.956;6.918;2023-02-07T07:58:53;103521.78;;;-1.17;77.73
49473;BME280;67434;50.956;6.918;2023-02-07T08:01:19;103532.91;;;-1.12;78.38
49473;BME280;67434;50.956;6.918;2023-02-07T08:03:44;103533.34;;;-1.06;77.87
49473;BME280;67434;50.956;6.918;2023-02-07T08:06:09;103542.66;;;-1.00;77.10
49473;BME280;67434;50.956;6.918;2023-02-07T08:08:35;103550.56;;;-0.87;77.14
49473;BME280;67434;50.956;6.918;2023-02-07T08:11:04;103552.16;;;-0.85;77.06
49473;BME280;67434;50.956;6.918;2023-02-07T08:13:30;103547.34;;;-0.80;76.53
49473;BME280;67434;50.956;6.918;2023-02-07T08:15:56;103550.41;;;-0.73;75.97
49473;BME280;67434;50.956;6.918;2023-02-07T08:18:22;103556.72;;;-0.63;75.32
49473;BME280;67434;50.956;6.918;2023-02-07T08:20:48;103551.69;;;-0.55;75.29
49473;BME280;67434;50.956;6.918;2023-02-07T08:23:13;103551.56;;;-0.53;75.35
49473;BME280;67434;50.956;6.918;2023-02-07T08:25:39;103552.19;;;-0.50;75.02
49473;BME280;67434;50.956;6.918;2023-02-07T08:28:05;103540.84;;;-0.52;75.45
49473;BME280;67434;50.956;6.918;2023-02-07T08:30:30;103544.34;;;-0.51;75.70
49473;BME280;67434;50.956;6.918;2023-02-07T08:32:56;103549.19;;;-0.45;74.97
49473;BME280;67434;50.956;6.918;2023-02-07T08:35:21;103555.72;;;-0.38;75.18
49473;BME280;67434;50.956;6.918;2023-02-07T08:37:47;103553.47;;;-0.32;74.67
49473;BME280;67434;50.956;6.918;2023-02-07T08:40:12;103558.19;;;-0.24;74.31
49473;BME280;67434;50.956;6.918;2023-02-07T08:42:38;103552.41;;;-0.18;73.92
49473;BME280;67434;50.956;6.918;2023-02-07T08:45:05;103548.56;;;-0.14;73.53
49473;BME280;67434;50.956;6.918;2023-02-07T08:47:30;103547.72;;;-0.03;72.82
49473;BME280;67434;50.956;6.918;2023-02-07T08:49:56;103548.56;;;-0.03;72.38
49473;BME280;67434;50.956;6.918;2023-02-07T08:52:22;103549.22;;;0.01;72.58
49473;BME280;67434;50.956;6.918;2023-02-07T08:54:48;103547.28;;;0.03;72.34
49473;BME280;67434;50.956;6.918;2023-02-07T08:57:14;103535.06;;;0.01;71.95
49473;BME280;67434;50.956;6.918;2023-02-07T08:59:41;103537.94;;;-0.03;72.61
49473;BME280;67434;50.956;6.918;2023-02-07T09:02:06;103530.59;;;0.01;72.47
49473;BME280;67434;50.956;6.918;2023-02-07T09:04:32;103522.50;;;0.14;72.63
49473;BME280;67434;50.956;6.918;2023-02-07T09:06:57;103524.31;;;0.13;72.41
49473;BME280;67434;50.956;6.918;2023-02-07T09:09:22;103528.28;;;0.19;72.66
49473;BME280;67434;50.956;6.918;2023-02-07T09:11:49;103521.28;;;0.18;72.94
49473;BME280;67434;50.956;6.918;2023-02-07T09:14:15;103524.91;;;0.28;72.23
49473;BME280;67434;50.956;6.918;2023-02-07T09:16:40;103526.34;;;0.32;72.09
49473;BME280;67434;50.956;6.918;2023-02-07T09:19:06;103518.63;;;0.40;71.97
49473;BME280;67434;50.956;6.918;2023-02-07T09:21:33;103523.34;;;0.48;71.69
49473;BME280;67434;50.956;6.918;2023-02-07T09:24:01;103520.81;;;0.46;72.17
49473;BME280;67434;50.956;6.918;2023-02-07T09:26:26;103509.06;;;0.49;71.93
49473;BME280;67434;50.956;6.918;2023-02-07T09:28:52;103509.53;;;0.54;71.56
49473;BME280;67434;50.956;6.918;2023-02-07T09:31:17;103500.56;;;0.66;71.49
49473;BME280;67434;50.956;6.918;2023-02-07T09:33:43;103496.81;;;0.69;71.07
49473;BME280;67434;50.956;6.918;2023-02-07T09:36:20;103497.78;;;0.79;71.05
49473;BME280;67434;50.956;6.918;2023-02-07T09:38:46;103502.84;;;0.82;70.81
49473;BME280;67434;50.956;6.918;2023-02-07T09:41:23;103493.50;;;0.87;71.01
49473;BME280;67434;50.956;6.918;2023-02-07T09:44:08;103492.41;;;0.90;70.90
49473;BME280;67434;50.956;6.918;2023-02-07T09:46:42;103487.34;;;0.87;71.49
49473;BME280;67434;50.956;6.918;2023-02-07T09:49:26;103489.75;;;0.90;71.21
49473;BME280;67434;50.956;6.918;2023-02-07T09:51:55;103500.88;;;0.95;70.64
49473;BME280;67434;50.956;6.918;2023-02-07T09:54:32;103498.66;;;1.00;70.14
49473;BME280;67434;50.956;6.918;2023-02-07T09:57:01;103493.09;;;1.03;70.04
49473;BME280;67434;50.956;6.918;2023-02-07T09:59:37;103485.78;;;1.16;69.71
49473;BME280;67434;50.956;6.918;2023-02-07T10:02:15;103493.00;;;1.25;68.80
49473;BME280;67434;50.956;6.918;2023-02-07T10:04:46;103495.81;;;1.24;69.00
49473;BME280;67434;50.956;6.918;2023-02-07T10:07:13;103490.66;;;1.32;68.09
49473;BME280;67434;50.956;6.918;2023-02-07T10:09:43;103500.47;;;1.32;67.33
49473;BME280;67434;50.956;6.918;2023-02-07T10:12:32;103510.63;;;1.38;67.79
49473;BME280;67434;50.956;6.918;2023-02-07T10:15:10;103509.66;;;1.39;67.38
49473;BME280;67434;50.956;6.918;2023-02-07T10:17:51;103504.78;;;1.44;67.17
49473;BME280;67434;50.956;6.918;2023-02-07T10:26:10;103508.50;;;1.52;66.37
49473;BME280;67434;50.956;6.918;2023-02-07T10:31:29;103505.38;;;1.68;66.42
49473;BME280;67434;50.956;6.918;2023-02-07T10:34:00;103500.50;;;1.73;65.87
49473;BME280;67434;50.956;6.918;2023-02-07T10:36:31;103499.53;;;1.74;65.67
49473;BME280;67434;50.956;6.918;2023-02-07T10:41:35;103492.75;;;1.91;63.91
49473;BME280;67434;50.956;6.918;2023-02-07T10:44:29;103494.06;;;1.97;62.93
49473;BME280;67434;50.956;6.918;2023-02-07T10:46:59;103493.06;;;1.98;62.51
49473;BME280;67434;50.956;6.918;2023-02-07T10:49:28;103499.38;;;1.97;62.89
49473;BME280;67434;50.956;6.918;2023-02-07T10:51:56;103495.03;;;1.96;62.73
49473;BME280;67434;50.956;6.918;2023-02-07T10:54:23;103497.16;;;2.02;62.69
49473;BME280;67434;50.956;6.918;2023-02-07T10:56:53;103504.31;;;2.01;63.11
49473;BME280;67434;50.956;6.918;2023-02-07T11:05:26;103506.19;;;2.10;62.33
49473;BME280;67434;50.956;6.918;2023-02-07T11:10:36;103504.25;;;2.22;62.79
49473;BME280;67434;50.956;6.918;2023-02-07T11:13:03;103506.81;;;2.24;61.94
49473;BME280;67434;50.956;6.918;2023-02-07T11:15:34;103509.09;;;2.28;61.47
49473;BME280;67434;50.956;6.918;2023-02-07T11:18:01;103516.13;;;2.29;60.84
49473;BME280;67434;50.956;6.918;2023-02-07T11:20:35;103498.28;;;2.30;60.88
49473;BME280;67434;50.956;6.918;2023-02-07T11:23:13;103494.81;;;2.48;59.72
49473;BME280;67434;50.956;6.918;2023-02-07T11:25:43;103493.25;;;2.46;60.45
49473;BME280;67434;50.956;6.918;2023-02-07T11:28:19;103493.94;;;2.38;59.38
49473;BME280;67434;50.956;6.918;2023-02-07T11:30:46;103487.50;;;2.41;59.31
49473;BME280;67434;50.956;6.918;2023-02-07T11:33:17;103489.19;;;2.42;59.74
49473;BME280;67434;50.956;6.918;2023-02-07T11:36:01;103489.19;;;2.51;60.52
49473;BME280;67434;50.956;6.918;2023-02-07T11:38:49;103479.66;;;2.59;59.91
49473;BME280;67434;50.956;6.918;2023-02-07T11:41:21;103478.72;;;2.69;59.21
49473;BME280;67434;50.956;6.918;2023-02-07T11:44:15;103483.34;;;2.67;57.84
49473;BME280;67434;50.956;6.918;2023-02-07T11:46:43;103473.25;;;2.71;55.92
49473;BME280;67434;50.956;6.918;2023-02-07T11:49:27;103474.22;;;2.79;56.72
49473;BME280;67434;50.956;6.918;2023-02-07T11:51:55;103470.72;;;2.79;56.21
49473;BME280;67434;50.956;6.918;2023-02-07T11:54:35;103465.50;;;2.87;55.84
49473;BME280;67434;50.956;6.918;2023-02-07T11:57:04;103463.84;;;2.86;55.37
49473;BME280;67434;50.956;6.918;2023-02-07T11:59:32;103465.66;;;2.95;55.09
49473;BME280;67434;50.956;6.918;2023-02-07T12:02:05;103461.28;;;2.94;53.47
49473;BME280;67434;50.956;6.918;2023-02-07T12:04:36;103457.78;;;2.94;53.93
49473;BME280;67434;50.956;6.918;2023-02-07T12:10:01;103464.56;;;2.98;53.46
49473;BME280;67434;50.956;6.918;2023-02-07T12:12:43;103458.94;;;3.01;53.44
49473;BME280;67434;50.956;6.918;2023-02-07T12:15:16;103462.03;;;3.06;52.09
49473;BME280;67434;50.956;6.918;2023-02-07T12:20:41;103457.50;;;3.16;52.85
49473;BME280;67434;50.956;6.918;2023-02-07T12:26:12;103459.34;;;3.44;51.45
49473;BME280;67434;50.956;6.918;2023-02-07T12:28:42;103453.84;;;3.46;52.37
49473;BME280;67434;50.956;6.918;2023-02-07T12:31:38;103450.34;;;3.36;51.94
49473;BME280;67434;50.956;6.918;2023-02-07T12:34:11;103449.91;;;3.40;52.43
49473;BME280;67434;50.956;6.918;2023-02-07T12:36:43;103451.56;;;3.51;51.49
49473;BME280;67434;50.956;6.918;2023-02-07T12:39:17;103456.59;;;3.64;51.10
49473;BME280;67434;50.956;6.918;2023-02-07T12:44:48;103450.41;;;3.63;50.88
49473;BME280;67434;50.956;6.918;2023-02-07T12:47:49;103446.59;;;3.66;50.37
49473;BME280;67434;50.956;6.918;2023-02-07T12:59:50;103428.72;;;3.76;48.56
49473;BME280;67434;50.956;6.918;2023-02-07T13:10:36;103430.06;;;3.90;48.89
49473;BME280;67434;50.956;6.918;2023-02-07T13:13:23;103418.97;;;3.85;48.19
49473;BME280;67434;50.956;6.918;2023-02-07T13:16:00;103409.19;;;3.93;47.86
49473;BME280;67434;50.956;6.918;2023-02-07T13:21:18;103419.47;;;3.98;47.03
49473;BME280;67434;50.956;6.918;2023-02-07T13:23:47;103413.66;;;4.02;47.62
49473;BME280;67434;50.956;6.918;2023-02-07T13:26:17;103407.59;;;4.10;49.01
49473;BME280;67434;50.956;6.918;2023-02-07T13:28:54;103397.72;;;4.11;47.78
49473;BME280;67434;50.956;6.918;2023-02-07T13:31:34;103398.97;;;4.16;47.66
49473;BME280;67434;50.956;6.918;2023-02-07T13:34:01;103397.16;;;4.34;47.10
49473;BME280;67434;50.956;6.918;2023-02-07T13:36:40;103400.44;;;4.28;46.07
49473;BME280;67434;50.956;6.918;2023-02-07T13:42:23;103406.09;;;4.25;46.96
49473;BME280;67434;50.956;6.918;2023-02-07T13:44:56;103408.16;;;4.31;45.75
49473;BME280;67434;50.956;6.918;2023-02-07T13:49:56;103393.47;;;4.35;46.04
49473;BME280;67434;50.956;6.918;2023-02-07T13:55:40;103395.91;;;4.29;47.33
49473;BME280;67434;50.956;6.918;2023-02-07T14:01:32;103397.69;;;4.38;46.15
49473;BME280;67434;50.956;6.918;2023-02-07T14:04:09;103388.19;;;4.44;45.59
49473;BME280;67434;50.956;6.918;2023-02-07T14:07:02;103395.25;;;4.45;45.97
49473;BME280;67434;50.956;6.918;2023-02-07T14:09:31;103397.69;;;4.38;46.11
49473;BME280;67434;50.956;6.918;2023-02-07T14:12:28;103395.97;;;4.47;44.61
49473;BME280;67434;50.956;6.918;2023-02-07T14:14:55;103385.25;;;4.47;44.57
49473;BME280;67434;50.956;6.918;2023-02-07T14:19:59;103396.69;;;4.39;46.15
49473;BME280;67434;50.956;6.918;2023-02-07T14:27:38;103395.81;;;4.66;44.99
49473;BME280;67434;50.956;6.918;2023-02-07T14:35:33;103395.28;;;4.62;45.01
49473;BME280;67434;50.956;6.918;2023-02-07T14:45:42;103386.53;;;4.43;45.03
49473;BME280;67434;50.956;6.918;2023-02-07T14:51:15;103379.19;;;4.45;43.29
49473;BME280;67434;50.956;6.918;2023-02-07T14:53:43;103372.59;;;4.39;45.02
49473;BME280;67434;50.956;6.918;2023-02-07T14:56:29;103378.63;;;4.41;44.24
49473;BME280;67434;50.956;6.918;2023-02-07T14:58:57;103380.75;;;4.47;43.93
49473;BME280;67434;50.956;6.918;2023-02-07T15:01:23;103378.78;;;4.39;44.42
49473;BME280;67434;50.956;6.918;2023-02-07T15:04:00;103380.38;;;4.32;44.69
49473;BME280;67434;50.956;6.918;2023-02-07T15:06:36;103379.16;;;4.27;44.41
49473;BME280;67434;50.956;6.918;2023-02-07T15:09:04;103375.50;;;4.28;45.11
49473;BME280;67434;50.956;6.918;2023-02-07T15:11:30;103370.69;;;4.31;44.39
49473;BME280;67434;50.956;6.918;2023-02-07T15:13:59;103378.56;;;4.33;43.95
49473;BME280;67434;50.956;6.918;2023-02-07T15:16:29;103376.13;;;4.39;44.11
49473;BME280;67434;50.956;6.918;2023-02-07T15:18:57;103364.16;;;4.34;45.00
49473;BME280;67434;50.956;6.918;2023-02-07T15:24:14;103370.44;;;4.25;44.33
49473;BME280;67434;50.956;6.918;2023-02-07T15:26:48;103377.19;;;4.29;43.28
49473;BME280;67434;50.956;6.918;2023-02-07T15:29:21;103371.03;;;4.19;43.38
49473;BME280;67434;50.956;6.918;2023-02-07T15:31:48;103375.16;;;4.13;43.99
49473;BME280;67434;50.956;6.918;2023-02-07T15:34:18;103373.47;;;4.12;43.26
49473;BME280;67434;50.956;6.918;2023-02-07T15:36:45;103370.84;;;4.02;44.26
49473;BME280;67434;50.956;6.918;2023-02-07T15:39:22;103374.97;;;3.97;44.73
49473;BME280;67434;50.956;6.918;2023-02-07T15:41:49;103378.19;;;4.00;43.83
49473;BME280;67434;50.956;6.918;2023-02-07T15:44:21;103373.41;;;3.94;43.55
49473;BME280;67434;50.956;6.918;2023-02-07T15:52:21;103375.75;;;3.80;42.82
49473;BME280;67434;50.956;6.918;2023-02-07T15:54:52;103370.41;;;3.80;43.00
49473;BME280;67434;50.956;6.918;2023-02-07T15:57:35;103368.41;;;3.82;43.05
49473;BME280;67434;50.956;6.918;2023-02-07T16:00:18;103375.34;;;3.74;43.39
49473;BME280;67434;50.956;6.918;2023-02-07T16:02:54;103368.31;;;3.73;42.75
49473;BME280;67434;50.956;6.918;2023-02-07T16:05:30;103369.72;;;3.68;43.32
49473;BME280;67434;50.956;6.918;2023-02-07T16:07:57;103369.06;;;3.56;43.99
49473;BME280;67434;50.956;6.918;2023-02-07T16:13:18;103368.13;;;3.48;43.31
49473;BME280;67434;50.956;6.918;2023-02-07T16:16:05;103370.34;;;3.52;43.78